KWRI/WRI METAR and TAF weather

Enter ICAO airport designator
Station Type Date Time Source
KWRI METAR 2018/12/19 02:56 UTC NOAA

KWRI 190256Z AUTO 00000KT 10SM CLR M03/M09 A3014 RMK AO2 SLP207 T10301087 50005 $


Station Type Date Time Source
KWRI Decoded METAR 2018/12/19 02:56 UTC NOAA

Mcguire Air Force Base, NJ, United States (KWRI) 40-01N 074-36W
Dec 18, 2018 - 09:56 PM EST / 2018.12.19 0256 UTC
Wind: Calm:0
Visibility: 10 mile(s):0
Sky conditions: clear
Temperature: 26.6 F (-3.0 C)
Dew Point: 16.3 F (-8.7 C)
Relative Humidity: 64%
Pressure (altimeter): 30.14 in. Hg (1020 hPa)
Pressure tendency: 0.01 inches (0.5 hPa) higher than three hours ago
ob: KWRI 190256Z AUTO 00000KT 10SM CLR M03/M09 A3014 RMK AO2 SLP207 T10301087 50005
cycle: 3

Station Type Date Time Source
KWRI TAF 2018/12/19 02:12 UTC NOAA

TAF KWRI 190200Z 1902/2008 VRB04KT 9999 FEW250 QNH3011INS WND 19006KT AFT 1918 TX06/1918Z TNM03/1908Z


Example: see airport list